This is the latest recevied weather packets stored in our database for station/object M0SDM-10. If no packets are shown the sender has not sent any weather packets the latest 10 day(s).
| Time | Temp. | Humidity | Pressure | Rain* | Wind** | Luminosity | Snow |
|---|---|---|---|---|---|---|---|
| 1777570051 | 16.67° C | 46% | 1010.9 hPa | - | - | - | - |
| 1777568251 | 16.67° C | 45% | 1010.9 hPa | - | - | - | - |
| 1777566451 | 16.67° C | 45% | 1011 hPa | - | - | - | - |
| 1777564650 | 16.67° C | 46% | 1011 hPa | - | - | - | - |
| 1777562850 | 17.78° C | 33% | 1011.2 hPa | - | - | - | - |
| 1777561050 | 16.11° C | 50% | 1011.4 hPa | - | - | - | - |
| 1777559250 | 16.11° C | 50% | 1011.7 hPa | - | - | - | - |
| 1777557450 | 15.56° C | 50% | 1012 hPa | - | - | - | - |
| 1777555650 | 15.56° C | 51% | 1012.2 hPa | - | - | - | - |
| 1777553850 | 15.56° C | 53% | 1012.5 hPa | - | - | - | - |
| 1777552049 | 15° C | 56% | 1012.6 hPa | - | - | - | - |
| 1777550249 | 15° C | 57% | 1012.8 hPa | - | - | - | - |
| 1777548449 | 14.44° C | 56% | 1013.1 hPa | - | - | - | - |
| 1777546649 | 14.44° C | 60% | 1013.3 hPa | - | - | - | - |
| 1777544849 | 13.89° C | 60% | 1013.5 hPa | - | - | - | - |
| 1777543049 | 13.89° C | 62% | 1013.8 hPa | - | - | - | - |
| 1777541248 | 13.33° C | 64% | 1014.1 hPa | - | - | - | - |
| 1777539447 | 12.78° C | 64% | 1014.2 hPa | - | - | - | - |
| 1777537647 | 12.22° C | 64% | 1014.4 hPa | - | - | - | - |
| 1777535847 | 11.67° C | 65% | 1014.6 hPa | - | - | - | - |
| 1777534047 | 11.11° C | 67% | 1014.5 hPa | - | - | - | - |
| 1777532247 | 10.56° C | 67% | 1014.7 hPa | - | - | - | - |
| 1777530447 | 10.56° C | 67% | 1014.7 hPa | - | - | - | - |
| 1777528646 | 10.56° C | 67% | 1014.8 hPa | - | - | - | - |
| 1777526846 | 10.56° C | 67% | 1014.8 hPa | - | - | - | - |
* Rain since midnight (hover to see other rain measurements)
** Current wind speed in m/s (hover to see current wind gust speed)